sensor_id;sensor_type;location;lat;lon;timestamp;P1;durP1;ratioP1;P2;durP2;ratioP2
1837;SDS011;918;50.796;6.772;2023-08-21T00:01:39;7.80;;;7.10;;
1837;SDS011;918;50.796;6.772;2023-08-21T00:04:04;8.77;;;8.07;;
1837;SDS011;918;50.796;6.772;2023-08-21T00:06:30;8.07;;;7.47;;
1837;SDS011;918;50.796;6.772;2023-08-21T00:08:56;10.20;;;8.03;;
1837;SDS011;918;50.796;6.772;2023-08-21T00:11:21;8.30;;;7.57;;
1837;SDS011;918;50.796;6.772;2023-08-21T00:13:46;8.67;;;7.80;;
1837;SDS011;918;50.796;6.772;2023-08-21T00:16:14;9.00;;;7.77;;
1837;SDS011;918;50.796;6.772;2023-08-21T00:18:39;8.80;;;8.20;;
1837;SDS011;918;50.796;6.772;2023-08-21T00:21:05;8.63;;;8.03;;
1837;SDS011;918;50.796;6.772;2023-08-21T00:23:30;9.47;;;8.40;;
1837;SDS011;918;50.796;6.772;2023-08-21T00:25:56;8.03;;;7.43;;
1837;SDS011;918;50.796;6.772;2023-08-21T00:28:21;8.30;;;7.80;;
1837;SDS011;918;50.796;6.772;2023-08-21T00:30:47;8.43;;;7.67;;
1837;SDS011;918;50.796;6.772;2023-08-21T00:33:12;7.80;;;7.30;;
1837;SDS011;918;50.796;6.772;2023-08-21T00:35:37;8.23;;;7.53;;
1837;SDS011;918;50.796;6.772;2023-08-21T00:38:02;9.30;;;8.50;;
1837;SDS011;918;50.796;6.772;2023-08-21T00:40:28;9.50;;;8.77;;
1837;SDS011;918;50.796;6.772;2023-08-21T00:42:53;8.40;;;7.80;;
1837;SDS011;918;50.796;6.772;2023-08-21T00:45:18;8.20;;;7.60;;
1837;SDS011;918;50.796;6.772;2023-08-21T00:47:44;7.90;;;7.30;;
1837;SDS011;918;50.796;6.772;2023-08-21T00:50:09;9.03;;;8.10;;
1837;SDS011;918;50.796;6.772;2023-08-21T00:52:36;8.43;;;7.70;;
1837;SDS011;918;50.796;6.772;2023-08-21T00:55:06;8.67;;;8.07;;
1837;SDS011;918;50.796;6.772;2023-08-21T00:57:32;8.13;;;7.63;;
1837;SDS011;918;50.796;6.772;2023-08-21T00:59:59;9.23;;;8.50;;
1837;SDS011;918;50.796;6.772;2023-08-21T01:02:25;8.13;;;7.43;;
1837;SDS011;918;50.796;6.772;2023-08-21T01:04:50;8.03;;;7.33;;
1837;SDS011;918;50.796;6.772;2023-08-21T01:07:15;8.67;;;7.87;;
1837;SDS011;918;50.796;6.772;2023-08-21T01:15:11;9.40;;;8.60;;
1837;SDS011;918;50.796;6.772;2023-08-21T01:17:31;7.97;;;7.47;;
1837;SDS011;918;50.796;6.772;2023-08-21T01:19:58;7.80;;;7.20;;
1837;SDS011;918;50.796;6.772;2023-08-21T01:22:25;7.60;;;7.10;;
1837;SDS011;918;50.796;6.772;2023-08-21T01:24:52;8.60;;;7.87;;
1837;SDS011;918;50.796;6.772;2023-08-21T01:27:17;8.13;;;7.53;;
1837;SDS011;918;50.796;6.772;2023-08-21T01:29:42;8.67;;;7.97;;
1837;SDS011;918;50.796;6.772;2023-08-21T01:34:43;8.07;;;7.33;;
1837;SDS011;918;50.796;6.772;2023-08-21T01:37:10;8.43;;;7.83;;
1837;SDS011;918;50.796;6.772;2023-08-21T01:39:36;8.83;;;8.23;;
1837;SDS011;918;50.796;6.772;2023-08-21T01:42:01;8.97;;;8.27;;
1837;SDS011;918;50.796;6.772;2023-08-21T01:44:26;9.20;;;8.37;;
1837;SDS011;918;50.796;6.772;2023-08-21T01:46:52;8.23;;;7.70;;
1837;SDS011;918;50.796;6.772;2023-08-21T01:49:18;9.17;;;8.20;;
1837;SDS011;918;50.796;6.772;2023-08-21T01:51:44;9.00;;;8.33;;
1837;SDS011;918;50.796;6.772;2023-08-21T01:54:10;8.20;;;7.70;;
1837;SDS011;918;50.796;6.772;2023-08-21T01:56:35;9.70;;;9.10;;
1837;SDS011;918;50.796;6.772;2023-08-21T01:59:01;9.20;;;8.30;;
1837;SDS011;918;50.796;6.772;2023-08-21T02:01:26;8.90;;;8.10;;
1837;SDS011;918;50.796;6.772;2023-08-21T02:03:52;9.93;;;9.17;;
1837;SDS011;918;50.796;6.772;2023-08-21T02:06:17;7.67;;;7.27;;
1837;SDS011;918;50.796;6.772;2023-08-21T02:08:42;8.30;;;7.80;;
1837;SDS011;918;50.796;6.772;2023-08-21T02:11:07;8.30;;;7.80;;
1837;SDS011;918;50.796;6.772;2023-08-21T02:13:33;8.90;;;8.40;;
1837;SDS011;918;50.796;6.772;2023-08-21T02:15:58;9.10;;;8.10;;
1837;SDS011;918;50.796;6.772;2023-08-21T02:18:23;10.03;;;8.60;;
1837;SDS011;918;50.796;6.772;2023-08-21T02:20:49;8.67;;;7.97;;
1837;SDS011;918;50.796;6.772;2023-08-21T02:23:14;9.10;;;8.40;;
1837;SDS011;918;50.796;6.772;2023-08-21T02:25:40;8.60;;;7.93;;
1837;SDS011;918;50.796;6.772;2023-08-21T02:28:05;9.33;;;8.50;;
1837;SDS011;918;50.796;6.772;2023-08-21T02:30:31;8.60;;;8.10;;
1837;SDS011;918;50.796;6.772;2023-08-21T02:32:56;8.00;;;7.40;;
1837;SDS011;918;50.796;6.772;2023-08-21T02:35:22;8.70;;;8.00;;
1837;SDS011;918;50.796;6.772;2023-08-21T02:37:47;9.77;;;9.10;;
1837;SDS011;918;50.796;6.772;2023-08-21T02:40:12;9.70;;;9.00;;
1837;SDS011;918;50.796;6.772;2023-08-21T02:42:37;9.33;;;8.63;;
1837;SDS011;918;50.796;6.772;2023-08-21T02:45:03;9.13;;;8.43;;
1837;SDS011;918;50.796;6.772;2023-08-21T02:47:34;9.50;;;8.80;;
1837;SDS011;918;50.796;6.772;2023-08-21T02:50:03;9.07;;;8.47;;
1837;SDS011;918;50.796;6.772;2023-08-21T02:52:29;9.33;;;8.57;;
1837;SDS011;918;50.796;6.772;2023-08-21T02:54:54;9.80;;;8.80;;
1837;SDS011;918;50.796;6.772;2023-08-21T02:57:19;9.80;;;9.20;;
1837;SDS011;918;50.796;6.772;2023-08-21T02:59:44;9.07;;;8.47;;
1837;SDS011;918;50.796;6.772;2023-08-21T03:02:10;9.30;;;8.60;;
1837;SDS011;918;50.796;6.772;2023-08-21T03:04:35;8.93;;;8.43;;
1837;SDS011;918;50.796;6.772;2023-08-21T03:07:00;9.70;;;9.10;;
1837;SDS011;918;50.796;6.772;2023-08-21T03:09:25;9.90;;;9.00;;
1837;SDS011;918;50.796;6.772;2023-08-21T03:11:51;9.23;;;8.63;;
1837;SDS011;918;50.796;6.772;2023-08-21T03:14:16;8.67;;;8.00;;
1837;SDS011;918;50.796;6.772;2023-08-21T03:16:41;9.23;;;8.53;;
1837;SDS011;918;50.796;6.772;2023-08-21T03:19:06;8.50;;;7.80;;
1837;SDS011;918;50.796;6.772;2023-08-21T03:21:32;9.70;;;8.80;;
1837;SDS011;918;50.796;6.772;2023-08-21T03:23:57;8.70;;;8.10;;
1837;SDS011;918;50.796;6.772;2023-08-21T03:26:24;8.90;;;8.37;;
1837;SDS011;918;50.796;6.772;2023-08-21T03:28:49;9.03;;;8.40;;
1837;SDS011;918;50.796;6.772;2023-08-21T03:31:14;9.47;;;8.67;;
1837;SDS011;918;50.796;6.772;2023-08-21T03:33:40;9.43;;;8.77;;
1837;SDS011;918;50.796;6.772;2023-08-21T03:36:05;8.33;;;7.73;;
1837;SDS011;918;50.796;6.772;2023-08-21T03:38:31;9.70;;;8.97;;
1837;SDS011;918;50.796;6.772;2023-08-21T03:40:56;10.07;;;9.37;;
1837;SDS011;918;50.796;6.772;2023-08-21T03:43:22;9.60;;;9.00;;
1837;SDS011;918;50.796;6.772;2023-08-21T03:45:47;8.97;;;8.37;;
1837;SDS011;918;50.796;6.772;2023-08-21T03:48:12;10.00;;;9.20;;
1837;SDS011;918;50.796;6.772;2023-08-21T03:50:38;10.30;;;9.50;;
1837;SDS011;918;50.796;6.772;2023-08-21T03:53:03;9.97;;;9.27;;
1837;SDS011;918;50.796;6.772;2023-08-21T03:55:29;9.00;;;8.17;;
1837;SDS011;918;50.796;6.772;2023-08-21T03:57:54;9.60;;;8.87;;
1837;SDS011;918;50.796;6.772;2023-08-21T04:00:19;10.27;;;9.47;;
1837;SDS011;918;50.796;6.772;2023-08-21T04:02:44;10.20;;;9.37;;
1837;SDS011;918;50.796;6.772;2023-08-21T04:05:10;13.53;;;11.73;;
1837;SDS011;918;50.796;6.772;2023-08-21T04:07:36;10.57;;;9.60;;
1837;SDS011;918;50.796;6.772;2023-08-21T04:10:01;9.60;;;8.90;;
1837;SDS011;918;50.796;6.772;2023-08-21T04:12:27;11.13;;;10.23;;
1837;SDS011;918;50.796;6.772;2023-08-21T04:14:52;14.40;;;12.13;;
1837;SDS011;918;50.796;6.772;2023-08-21T04:17:21;10.50;;;9.60;;
1837;SDS011;918;50.796;6.772;2023-08-21T04:19:47;10.43;;;9.57;;
1837;SDS011;918;50.796;6.772;2023-08-21T04:22:12;18.10;;;12.10;;
1837;SDS011;918;50.796;6.772;2023-08-21T04:24:38;23.23;;;13.50;;
1837;SDS011;918;50.796;6.772;2023-08-21T04:27:04;22.17;;;13.97;;
1837;SDS011;918;50.796;6.772;2023-08-21T04:29:29;19.40;;;13.70;;
1837;SDS011;918;50.796;6.772;2023-08-21T04:31:54;20.43;;;12.43;;
1837;SDS011;918;50.796;6.772;2023-08-21T04:34:19;18.27;;;12.30;;
1837;SDS011;918;50.796;6.772;2023-08-21T04:36:45;10.97;;;10.17;;
1837;SDS011;918;50.796;6.772;2023-08-21T04:39:10;12.03;;;10.70;;
1837;SDS011;918;50.796;6.772;2023-08-21T04:41:35;11.00;;;10.17;;
1837;SDS011;918;50.796;6.772;2023-08-21T04:44:00;11.67;;;10.80;;
1837;SDS011;918;50.796;6.772;2023-08-21T04:46:26;10.33;;;9.63;;
1837;SDS011;918;50.796;6.772;2023-08-21T04:48:51;11.80;;;10.80;;
1837;SDS011;918;50.796;6.772;2023-08-21T04:51:17;12.97;;;12.00;;
1837;SDS011;918;50.796;6.772;2023-08-21T04:53:42;11.83;;;10.87;;
1837;SDS011;918;50.796;6.772;2023-08-21T04:56:07;10.93;;;10.03;;
1837;SDS011;918;50.796;6.772;2023-08-21T04:58:32;11.83;;;10.93;;
1837;SDS011;918;50.796;6.772;2023-08-21T05:00:57;12.33;;;11.20;;
1837;SDS011;918;50.796;6.772;2023-08-21T05:03:24;13.23;;;12.00;;
1837;SDS011;918;50.796;6.772;2023-08-21T05:05:56;14.07;;;12.87;;
1837;SDS011;918;50.796;6.772;2023-08-21T05:08:22;13.47;;;12.33;;
1837;SDS011;918;50.796;6.772;2023-08-21T05:10:49;11.80;;;10.90;;
1837;SDS011;918;50.796;6.772;2023-08-21T05:13:19;11.90;;;11.10;;
1837;SDS011;918;50.796;6.772;2023-08-21T05:15:44;13.00;;;11.90;;
1837;SDS011;918;50.796;6.772;2023-08-21T05:18:16;12.60;;;11.60;;
1837;SDS011;918;50.796;6.772;2023-08-21T05:20:41;11.60;;;10.73;;
1837;SDS011;918;50.796;6.772;2023-08-21T05:23:06;12.20;;;11.17;;
1837;SDS011;918;50.796;6.772;2023-08-21T05:25:32;11.23;;;10.30;;
1837;SDS011;918;50.796;6.772;2023-08-21T05:27:57;11.37;;;10.47;;
1837;SDS011;918;50.796;6.772;2023-08-21T05:30:23;9.93;;;9.03;;
1837;SDS011;918;50.796;6.772;2023-08-21T05:32:48;9.93;;;9.13;;
1837;SDS011;918;50.796;6.772;2023-08-21T05:35:13;10.43;;;9.63;;
1837;SDS011;918;50.796;6.772;2023-08-21T05:37:38;9.47;;;8.87;;
1837;SDS011;918;50.796;6.772;2023-08-21T05:40:04;10.23;;;9.33;;
1837;SDS011;918;50.796;6.772;2023-08-21T05:42:30;10.53;;;9.47;;
1837;SDS011;918;50.796;6.772;2023-08-21T05:44:55;9.97;;;9.07;;
1837;SDS011;918;50.796;6.772;2023-08-21T05:47:20;9.23;;;8.53;;
1837;SDS011;918;50.796;6.772;2023-08-21T05:49:46;9.80;;;9.00;;
1837;SDS011;918;50.796;6.772;2023-08-21T05:52:12;9.87;;;8.87;;
1837;SDS011;918;50.796;6.772;2023-08-21T05:54:38;10.40;;;9.40;;
1837;SDS011;918;50.796;6.772;2023-08-21T05:57:03;9.40;;;8.53;;
1837;SDS011;918;50.796;6.772;2023-08-21T05:59:31;8.97;;;7.80;;
1837;SDS011;918;50.796;6.772;2023-08-21T06:01:57;8.63;;;7.83;;
1837;SDS011;918;50.796;6.772;2023-08-21T06:04:23;8.33;;;7.53;;
1837;SDS011;918;50.796;6.772;2023-08-21T06:06:49;8.53;;;7.73;;
1837;SDS011;918;50.796;6.772;2023-08-21T06:09:14;8.30;;;7.13;;
1837;SDS011;918;50.796;6.772;2023-08-21T06:11:42;7.73;;;7.00;;
1837;SDS011;918;50.796;6.772;2023-08-21T06:14:07;7.70;;;6.93;;
1837;SDS011;918;50.796;6.772;2023-08-21T06:16:32;9.87;;;7.00;;
1837;SDS011;918;50.796;6.772;2023-08-21T06:18:57;7.70;;;7.00;;
1837;SDS011;918;50.796;6.772;2023-08-21T06:21:24;7.70;;;6.10;;
1837;SDS011;918;50.796;6.772;2023-08-21T06:23:50;9.20;;;6.10;;
1837;SDS011;918;50.796;6.772;2023-08-21T06:26:15;6.53;;;5.90;;
1837;SDS011;918;50.796;6.772;2023-08-21T06:28:40;7.90;;;6.40;;
1837;SDS011;918;50.796;6.772;2023-08-21T06:31:08;6.97;;;5.47;;
1837;SDS011;918;50.796;6.772;2023-08-21T06:33:33;7.50;;;5.33;;
1837;SDS011;918;50.796;6.772;2023-08-21T06:35:58;7.13;;;6.20;;
1837;SDS011;918;50.796;6.772;2023-08-21T06:38:24;6.27;;;5.47;;
1837;SDS011;918;50.796;6.772;2023-08-21T06:40:49;9.00;;;4.80;;
1837;SDS011;918;50.796;6.772;2023-08-21T06:43:16;8.97;;;4.90;;
1837;SDS011;918;50.796;6.772;2023-08-21T06:45:41;9.23;;;5.03;;
1837;SDS011;918;50.796;6.772;2023-08-21T06:48:06;7.57;;;5.03;;
1837;SDS011;918;50.796;6.772;2023-08-21T06:50:32;11.40;;;5.90;;
1837;SDS011;918;50.796;6.772;2023-08-21T06:52:57;10.47;;;6.17;;
1837;SDS011;918;50.796;6.772;2023-08-21T06:55:22;9.50;;;5.63;;
1837;SDS011;918;50.796;6.772;2023-08-21T06:57:47;8.97;;;5.67;;
1837;SDS011;918;50.796;6.772;2023-08-21T07:00:13;10.57;;;6.30;;
1837;SDS011;918;50.796;6.772;2023-08-21T07:02:38;8.30;;;5.17;;
1837;SDS011;918;50.796;6.772;2023-08-21T07:05:03;5.63;;;4.83;;
1837;SDS011;918;50.796;6.772;2023-08-21T07:07:29;7.40;;;5.70;;
1837;SDS011;918;50.796;6.772;2023-08-21T07:09:54;10.57;;;5.40;;
1837;SDS011;918;50.796;6.772;2023-08-21T07:12:19;13.30;;;6.50;;
1837;SDS011;918;50.796;6.772;2023-08-21T07:14:45;14.20;;;7.33;;
1837;SDS011;918;50.796;6.772;2023-08-21T07:17:10;13.57;;;7.30;;
1837;SDS011;918;50.796;6.772;2023-08-21T07:19:35;14.27;;;8.20;;
1837;SDS011;918;50.796;6.772;2023-08-21T07:22:00;11.53;;;6.80;;
1837;SDS011;918;50.796;6.772;2023-08-21T07:24:26;19.07;;;8.27;;
1837;SDS011;918;50.796;6.772;2023-08-21T07:26:51;15.70;;;7.70;;
1837;SDS011;918;50.796;6.772;2023-08-21T07:29:16;10.30;;;6.50;;
1837;SDS011;918;50.796;6.772;2023-08-21T07:31:41;13.07;;;8.20;;
1837;SDS011;918;50.796;6.772;2023-08-21T07:34:07;11.50;;;8.73;;
1837;SDS011;918;50.796;6.772;2023-08-21T07:36:32;10.07;;;8.50;;
1837;SDS011;918;50.796;6.772;2023-08-21T07:38:58;10.63;;;9.50;;
1837;SDS011;918;50.796;6.772;2023-08-21T07:41:23;9.57;;;8.07;;
1837;SDS011;918;50.796;6.772;2023-08-21T07:43:48;12.73;;;7.13;;
1837;SDS011;918;50.796;6.772;2023-08-21T07:46:13;15.10;;;8.10;;
1837;SDS011;918;50.796;6.772;2023-08-21T07:48:41;13.30;;;7.80;;
1837;SDS011;918;50.796;6.772;2023-08-21T07:51:07;10.40;;;8.73;;
1837;SDS011;918;50.796;6.772;2023-08-21T07:53:32;8.87;;;7.87;;
1837;SDS011;918;50.796;6.772;2023-08-21T07:55:59;9.70;;;8.00;;
1837;SDS011;918;50.796;6.772;2023-08-21T07:58:25;8.90;;;8.03;;
1837;SDS011;918;50.796;6.772;2023-08-21T08:00:50;11.20;;;8.67;;
1837;SDS011;918;50.796;6.772;2023-08-21T08:03:15;9.23;;;8.37;;
1837;SDS011;918;50.796;6.772;2023-08-21T08:05:41;10.17;;;9.27;;
1837;SDS011;918;50.796;6.772;2023-08-21T08:08:07;9.97;;;8.33;;
1837;SDS011;918;50.796;6.772;2023-08-21T08:10:32;8.47;;;7.73;;
1837;SDS011;918;50.796;6.772;2023-08-21T08:12:58;10.10;;;8.23;;
1837;SDS011;918;50.796;6.772;2023-08-21T08:15:23;10.67;;;9.70;;
1837;SDS011;918;50.796;6.772;2023-08-21T08:17:48;9.50;;;8.70;;
1837;SDS011;918;50.796;6.772;2023-08-21T08:20:18;10.63;;;9.73;;
1837;SDS011;918;50.796;6.772;2023-08-21T08:22:43;9.23;;;8.43;;
1837;SDS011;918;50.796;6.772;2023-08-21T08:25:09;9.80;;;8.80;;
1837;SDS011;918;50.796;6.772;2023-08-21T08:27:35;9.00;;;8.20;;
1837;SDS011;918;50.796;6.772;2023-08-21T08:30:00;9.97;;;9.00;;
1837;SDS011;918;50.796;6.772;2023-08-21T08:32:26;10.80;;;9.90;;
1837;SDS011;918;50.796;6.772;2023-08-21T08:34:51;9.83;;;8.93;;
1837;SDS011;918;50.796;6.772;2023-08-21T08:37:17;11.40;;;10.27;;
1837;SDS011;918;50.796;6.772;2023-08-21T08:39:43;10.87;;;9.30;;
1837;SDS011;918;50.796;6.772;2023-08-21T08:42:08;12.07;;;10.97;;
1837;SDS011;918;50.796;6.772;2023-08-21T08:44:34;12.83;;;9.50;;
1837;SDS011;918;50.796;6.772;2023-08-21T08:47:00;13.10;;;9.97;;
1837;SDS011;918;50.796;6.772;2023-08-21T08:49:25;11.37;;;10.17;;
1837;SDS011;918;50.796;6.772;2023-08-21T08:51:51;11.03;;;10.13;;
1837;SDS011;918;50.796;6.772;2023-08-21T08:54:18;11.63;;;10.43;;
1837;SDS011;918;50.796;6.772;2023-08-21T08:56:45;12.97;;;10.20;;
1837;SDS011;918;50.796;6.772;2023-08-21T08:59:10;11.83;;;9.57;;
1837;SDS011;918;50.796;6.772;2023-08-21T09:01:35;11.30;;;9.53;;
1837;SDS011;918;50.796;6.772;2023-08-21T09:04:01;10.50;;;9.50;;
1837;SDS011;918;50.796;6.772;2023-08-21T09:06:26;9.90;;;9.10;;
1837;SDS011;918;50.796;6.772;2023-08-21T09:08:57;10.20;;;9.30;;
1837;SDS011;918;50.796;6.772;2023-08-21T09:11:23;10.63;;;8.20;;
1837;SDS011;918;50.796;6.772;2023-08-21T09:13:49;10.17;;;8.97;;
1837;SDS011;918;50.796;6.772;2023-08-21T09:16:17;10.30;;;9.40;;
1837;SDS011;918;50.796;6.772;2023-08-21T09:18:46;9.87;;;8.97;;
1837;SDS011;918;50.796;6.772;2023-08-21T09:21:18;10.33;;;9.53;;
1837;SDS011;918;50.796;6.772;2023-08-21T09:23:44;10.50;;;8.60;;
1837;SDS011;918;50.796;6.772;2023-08-21T09:26:10;10.60;;;9.57;;
1837;SDS011;918;50.796;6.772;2023-08-21T09:28:36;11.77;;;10.17;;
1837;SDS011;918;50.796;6.772;2023-08-21T09:31:02;10.10;;;9.10;;
1837;SDS011;918;50.796;6.772;2023-08-21T09:33:28;11.73;;;8.27;;
1837;SDS011;918;50.796;6.772;2023-08-21T09:35:54;8.33;;;7.53;;
1837;SDS011;918;50.796;6.772;2023-08-21T09:38:20;10.00;;;9.20;;
1837;SDS011;918;50.796;6.772;2023-08-21T09:40:49;10.13;;;9.20;;
1837;SDS011;918;50.796;6.772;2023-08-21T09:43:16;10.83;;;8.83;;
1837;SDS011;918;50.796;6.772;2023-08-21T09:45:42;9.10;;;8.40;;
1837;SDS011;918;50.796;6.772;2023-08-21T09:48:11;11.50;;;10.50;;
1837;SDS011;918;50.796;6.772;2023-08-21T09:50:36;9.13;;;8.40;;
1837;SDS011;918;50.796;6.772;2023-08-21T09:53:03;9.70;;;8.90;;
1837;SDS011;918;50.796;6.772;2023-08-21T09:55:31;10.83;;;9.90;;
1837;SDS011;918;50.796;6.772;2023-08-21T09:58:00;12.70;;;10.63;;
1837;SDS011;918;50.796;6.772;2023-08-21T10:00:33;9.83;;;9.00;;
1837;SDS011;918;50.796;6.772;2023-08-21T10:03:01;9.70;;;8.40;;
1837;SDS011;918;50.796;6.772;2023-08-21T10:05:28;10.13;;;9.33;;
1837;SDS011;918;50.796;6.772;2023-08-21T10:07:55;10.17;;;9.13;;
1837;SDS011;918;50.796;6.772;2023-08-21T10:10:21;9.10;;;8.20;;
1837;SDS011;918;50.796;6.772;2023-08-21T10:12:47;9.97;;;9.17;;
1837;SDS011;918;50.796;6.772;2023-08-21T10:15:13;9.33;;;8.43;;
1837;SDS011;918;50.796;6.772;2023-08-21T10:17:38;9.47;;;8.53;;
1837;SDS011;918;50.796;6.772;2023-08-21T10:20:05;9.53;;;8.63;;
1837;SDS011;918;50.796;6.772;2023-08-21T10:22:43;9.97;;;9.17;;
1837;SDS011;918;50.796;6.772;2023-08-21T10:25:13;10.13;;;9.10;;
1837;SDS011;918;50.796;6.772;2023-08-21T10:27:48;10.60;;;9.63;;
1837;SDS011;918;50.796;6.772;2023-08-21T10:30:15;10.20;;;9.07;;
1837;SDS011;918;50.796;6.772;2023-08-21T10:32:45;10.53;;;9.50;;
1837;SDS011;918;50.796;6.772;2023-08-21T10:35:15;10.00;;;9.13;;
1837;SDS011;918;50.796;6.772;2023-08-21T10:40:37;10.03;;;9.13;;
1837;SDS011;918;50.796;6.772;2023-08-21T10:43:04;10.97;;;9.97;;
1837;SDS011;918;50.796;6.772;2023-08-21T10:45:29;10.50;;;9.50;;
1837;SDS011;918;50.796;6.772;2023-08-21T10:47:58;11.30;;;10.20;;
1837;SDS011;918;50.796;6.772;2023-08-21T10:50:25;9.87;;;8.83;;
1837;SDS011;918;50.796;6.772;2023-08-21T10:52:51;10.10;;;8.97;;
1837;SDS011;918;50.796;6.772;2023-08-21T10:55:17;9.90;;;9.20;;
1837;SDS011;918;50.796;6.772;2023-08-21T10:57:43;9.43;;;8.63;;
1837;SDS011;918;50.796;6.772;2023-08-21T11:00:11;15.50;;;10.00;;
1837;SDS011;918;50.796;6.772;2023-08-21T11:02:39;9.60;;;8.70;;
1837;SDS011;918;50.796;6.772;2023-08-21T11:05:05;10.00;;;9.13;;
1837;SDS011;918;50.796;6.772;2023-08-21T11:10:11;11.63;;;8.43;;
1837;SDS011;918;50.796;6.772;2023-08-21T11:12:38;12.00;;;8.50;;
1837;SDS011;918;50.796;6.772;2023-08-21T11:15:04;8.77;;;7.87;;
1837;SDS011;918;50.796;6.772;2023-08-21T11:17:30;9.87;;;7.03;;
1837;SDS011;918;50.796;6.772;2023-08-21T11:19:55;8.73;;;8.03;;
1837;SDS011;918;50.796;6.772;2023-08-21T11:22:27;8.27;;;7.40;;
1837;SDS011;918;50.796;6.772;2023-08-21T11:24:54;8.93;;;8.00;;
1837;SDS011;918;50.796;6.772;2023-08-21T11:27:19;9.93;;;8.07;;
1837;SDS011;918;50.796;6.772;2023-08-21T11:29:45;10.57;;;7.93;;
1837;SDS011;918;50.796;6.772;2023-08-21T11:32:16;8.40;;;7.70;;
1837;SDS011;918;50.796;6.772;2023-08-21T11:34:47;8.00;;;7.23;;
1837;SDS011;918;50.796;6.772;2023-08-21T11:37:13;9.73;;;7.90;;
1837;SDS011;918;50.796;6.772;2023-08-21T11:39:42;8.70;;;7.90;;
1837;SDS011;918;50.796;6.772;2023-08-21T11:42:09;9.90;;;9.10;;
1837;SDS011;918;50.796;6.772;2023-08-21T11:44:44;9.00;;;8.20;;
1837;SDS011;918;50.796;6.772;2023-08-21T11:47:12;8.60;;;7.90;;
1837;SDS011;918;50.796;6.772;2023-08-21T11:49:41;8.33;;;7.23;;
1837;SDS011;918;50.796;6.772;2023-08-21T11:52:07;9.40;;;8.50;;
1837;SDS011;918;50.796;6.772;2023-08-21T11:54:37;9.80;;;8.93;;
1837;SDS011;918;50.796;6.772;2023-08-21T11:57:13;10.70;;;8.10;;
1837;SDS011;918;50.796;6.772;2023-08-21T11:59:39;10.90;;;9.90;;
1837;SDS011;918;50.796;6.772;2023-08-21T12:02:08;9.30;;;8.50;;
1837;SDS011;918;50.796;6.772;2023-08-21T12:04:34;9.10;;;8.20;;
1837;SDS011;918;50.796;6.772;2023-08-21T12:07:00;9.67;;;8.87;;
1837;SDS011;918;50.796;6.772;2023-08-21T12:09:25;9.93;;;8.87;;
1837;SDS011;918;50.796;6.772;2023-08-21T12:11:51;8.47;;;7.77;;
1837;SDS011;918;50.796;6.772;2023-08-21T12:14:16;11.07;;;9.27;;
1837;SDS011;918;50.796;6.772;2023-08-21T12:16:42;9.40;;;8.57;;
1837;SDS011;918;50.796;6.772;2023-08-21T12:19:07;8.87;;;8.10;;
1837;SDS011;918;50.796;6.772;2023-08-21T12:21:34;10.63;;;7.83;;
1837;SDS011;918;50.796;6.772;2023-08-21T12:24:02;8.87;;;7.97;;
1837;SDS011;918;50.796;6.772;2023-08-21T12:26:28;9.50;;;8.43;;
1837;SDS011;918;50.796;6.772;2023-08-21T12:28:53;8.63;;;7.93;;
1837;SDS011;918;50.796;6.772;2023-08-21T12:31:19;7.97;;;7.30;;
1837;SDS011;918;50.796;6.772;2023-08-21T12:33:44;7.30;;;6.60;;
1837;SDS011;918;50.796;6.772;2023-08-21T12:36:09;6.60;;;6.10;;
1837;SDS011;918;50.796;6.772;2023-08-21T12:38:34;5.90;;;5.50;;
1837;SDS011;918;50.796;6.772;2023-08-21T12:41:01;6.10;;;5.70;;
1837;SDS011;918;50.796;6.772;2023-08-21T12:43:27;7.10;;;6.50;;
1837;SDS011;918;50.796;6.772;2023-08-21T12:45:52;7.93;;;5.80;;
1837;SDS011;918;50.796;6.772;2023-08-21T12:48:18;6.20;;;5.60;;
1837;SDS011;918;50.796;6.772;2023-08-21T12:50:43;5.33;;;4.83;;
1837;SDS011;918;50.796;6.772;2023-08-21T12:53:08;5.83;;;5.10;;
1837;SDS011;918;50.796;6.772;2023-08-21T12:55:33;5.73;;;5.33;;
1837;SDS011;918;50.796;6.772;2023-08-21T12:57:59;6.33;;;5.10;;
1837;SDS011;918;50.796;6.772;2023-08-21T13:00:24;5.07;;;4.43;;
1837;SDS011;918;50.796;6.772;2023-08-21T13:02:49;4.17;;;3.97;;
1837;SDS011;918;50.796;6.772;2023-08-21T13:05:14;5.77;;;4.00;;
1837;SDS011;918;50.796;6.772;2023-08-21T13:07:40;4.60;;;4.30;;
1837;SDS011;918;50.796;6.772;2023-08-21T13:10:06;8.43;;;4.63;;
1837;SDS011;918;50.796;6.772;2023-08-21T13:12:32;5.77;;;5.10;;
1837;SDS011;918;50.796;6.772;2023-08-21T13:14:57;5.90;;;5.30;;
1837;SDS011;918;50.796;6.772;2023-08-21T13:17:23;5.73;;;5.23;;
1837;SDS011;918;50.796;6.772;2023-08-21T13:19:49;6.20;;;4.63;;
1837;SDS011;918;50.796;6.772;2023-08-21T13:22:15;4.60;;;4.13;;
1837;SDS011;918;50.796;6.772;2023-08-21T13:24:41;4.70;;;4.30;;
1837;SDS011;918;50.796;6.772;2023-08-21T13:27:07;4.03;;;3.60;;
1837;SDS011;918;50.796;6.772;2023-08-21T13:29:32;3.30;;;3.10;;
1837;SDS011;918;50.796;6.772;2023-08-21T13:31:58;4.00;;;3.70;;
1837;SDS011;918;50.796;6.772;2023-08-21T13:34:23;7.20;;;3.53;;
1837;SDS011;918;50.796;6.772;2023-08-21T13:36:48;4.13;;;3.67;;
1837;SDS011;918;50.796;6.772;2023-08-21T13:39:14;3.77;;;3.37;;
1837;SDS011;918;50.796;6.772;2023-08-21T13:41:40;6.53;;;3.07;;
1837;SDS011;918;50.796;6.772;2023-08-21T13:44:05;3.13;;;2.83;;
1837;SDS011;918;50.796;6.772;2023-08-21T13:46:32;4.93;;;3.80;;
1837;SDS011;918;50.796;6.772;2023-08-21T13:48:58;4.63;;;4.07;;
1837;SDS011;918;50.796;6.772;2023-08-21T13:51:23;3.50;;;2.67;;
1837;SDS011;918;50.796;6.772;2023-08-21T13:53:48;3.70;;;3.33;;
1837;SDS011;918;50.796;6.772;2023-08-21T13:56:14;5.00;;;2.67;;
1837;SDS011;918;50.796;6.772;2023-08-21T13:58:40;2.97;;;2.77;;
1837;SDS011;918;50.796;6.772;2023-08-21T14:01:05;5.83;;;3.20;;
1837;SDS011;918;50.796;6.772;2023-08-21T14:03:32;3.33;;;3.00;;
1837;SDS011;918;50.796;6.772;2023-08-21T14:05:58;4.10;;;3.70;;
1837;SDS011;918;50.796;6.772;2023-08-21T14:08:23;4.80;;;4.40;;
1837;SDS011;918;50.796;6.772;2023-08-21T14:10:48;7.53;;;3.90;;
1837;SDS011;918;50.796;6.772;2023-08-21T14:13:13;9.40;;;4.30;;
1837;SDS011;918;50.796;6.772;2023-08-21T14:15:38;5.00;;;4.20;;
1837;SDS011;918;50.796;6.772;2023-08-21T14:18:04;5.70;;;3.90;;
1837;SDS011;918;50.796;6.772;2023-08-21T14:20:31;3.60;;;3.30;;
1837;SDS011;918;50.796;6.772;2023-08-21T14:22:56;12.53;;;3.93;;
1837;SDS011;918;50.796;6.772;2023-08-21T14:25:21;4.60;;;3.90;;
1837;SDS011;918;50.796;6.772;2023-08-21T14:27:47;4.73;;;3.37;;
1837;SDS011;918;50.796;6.772;2023-08-21T14:30:13;3.63;;;2.80;;
1837;SDS011;918;50.796;6.772;2023-08-21T14:32:39;4.37;;;3.97;;
1837;SDS011;918;50.796;6.772;2023-08-21T14:35:05;6.57;;;3.37;;
1837;SDS011;918;50.796;6.772;2023-08-21T14:37:33;3.70;;;3.20;;
1837;SDS011;918;50.796;6.772;2023-08-21T14:39:58;3.80;;;3.10;;
1837;SDS011;918;50.796;6.772;2023-08-21T14:42:23;3.77;;;3.00;;
1837;SDS011;918;50.796;6.772;2023-08-21T14:44:49;3.50;;;3.20;;
1837;SDS011;918;50.796;6.772;2023-08-21T14:47:14;3.40;;;3.10;;
1837;SDS011;918;50.796;6.772;2023-08-21T14:49:39;4.00;;;3.33;;
1837;SDS011;918;50.796;6.772;2023-08-21T14:52:04;4.10;;;3.47;;
1837;SDS011;918;50.796;6.772;2023-08-21T14:54:30;3.70;;;3.10;;
1837;SDS011;918;50.796;6.772;2023-08-21T14:56:58;3.60;;;3.23;;
1837;SDS011;918;50.796;6.772;2023-08-21T14:59:23;3.07;;;2.77;;
1837;SDS011;918;50.796;6.772;2023-08-21T15:01:48;3.80;;;3.00;;
1837;SDS011;918;50.796;6.772;2023-08-21T15:04:13;4.40;;;2.90;;
1837;SDS011;918;50.796;6.772;2023-08-21T15:06:39;3.60;;;3.30;;
1837;SDS011;918;50.796;6.772;2023-08-21T15:09:04;3.77;;;2.57;;
1837;SDS011;918;50.796;6.772;2023-08-21T15:11:30;3.60;;;2.50;;
1837;SDS011;918;50.796;6.772;2023-08-21T15:13:56;2.40;;;2.20;;
1837;SDS011;918;50.796;6.772;2023-08-21T15:16:21;4.73;;;2.80;;
1837;SDS011;918;50.796;6.772;2023-08-21T15:18:46;5.67;;;3.07;;
1837;SDS011;918;50.796;6.772;2023-08-21T15:21:13;2.23;;;2.03;;
1837;SDS011;918;50.796;6.772;2023-08-21T15:23:39;3.53;;;2.00;;
1837;SDS011;918;50.796;6.772;2023-08-21T15:26:04;5.67;;;2.50;;
1837;SDS011;918;50.796;6.772;2023-08-21T15:28:29;12.07;;;5.43;;
1837;SDS011;918;50.796;6.772;2023-08-21T15:30:54;3.40;;;2.60;;